sensor_id;sensor_type;location;lat;lon;timestamp;P1;durP1;ratioP1;P2;durP2;ratioP2
56037;SDS011;41907;47.848;9.000;2023-03-14T00:00:35;7.38;;;3.90;;
56037;SDS011;41907;47.848;9.000;2023-03-14T00:03:00;4.03;;;2.15;;
56037;SDS011;41907;47.848;9.000;2023-03-14T00:05:26;3.08;;;0.88;;
56037;SDS011;41907;47.848;9.000;2023-03-14T00:07:51;2.72;;;1.05;;
56037;SDS011;41907;47.848;9.000;2023-03-14T00:10:17;1.13;;;0.32;;
56037;SDS011;41907;47.848;9.000;2023-03-14T00:12:42;0.82;;;0.30;;
56037;SDS011;41907;47.848;9.000;2023-03-14T00:15:08;1.85;;;0.32;;
56037;SDS011;41907;47.848;9.000;2023-03-14T00:17:35;0.43;;;0.32;;
56037;SDS011;41907;47.848;9.000;2023-03-14T00:20:01;0.65;;;0.22;;
56037;SDS011;41907;47.848;9.000;2023-03-14T00:22:29;0.22;;;0.10;;
56037;SDS011;41907;47.848;9.000;2023-03-14T00:24:55;0.30;;;0.10;;
56037;SDS011;41907;47.848;9.000;2023-03-14T00:29:46;0.50;;;0.10;;
56037;SDS011;41907;47.848;9.000;2023-03-14T00:32:11;1.95;;;0.30;;
56037;SDS011;41907;47.848;9.000;2023-03-14T00:34:37;1.58;;;0.30;;
56037;SDS011;41907;47.848;9.000;2023-03-14T00:37:02;4.80;;;1.30;;
56037;SDS011;41907;47.848;9.000;2023-03-14T00:39:27;2.25;;;1.42;;
56037;SDS011;41907;47.848;9.000;2023-03-14T00:41:53;2.95;;;0.90;;
56037;SDS011;41907;47.848;9.000;2023-03-14T00:44:18;2.95;;;0.77;;
56037;SDS011;41907;47.848;9.000;2023-03-14T00:46:43;1.67;;;0.43;;
56037;SDS011;41907;47.848;9.000;2023-03-14T00:49:09;0.52;;;0.30;;
56037;SDS011;41907;47.848;9.000;2023-03-14T00:51:34;0.63;;;0.13;;
56037;SDS011;41907;47.848;9.000;2023-03-14T00:53:59;0.30;;;0.30;;
56037;SDS011;41907;47.848;9.000;2023-03-14T00:56:25;3.38;;;1.00;;
56037;SDS011;41907;47.848;9.000;2023-03-14T00:58:54;6.07;;;1.65;;
56037;SDS011;41907;47.848;9.000;2023-03-14T01:01:20;1.42;;;0.63;;
56037;SDS011;41907;47.848;9.000;2023-03-14T01:03:46;4.22;;;0.77;;
56037;SDS011;41907;47.848;9.000;2023-03-14T01:06:16;7.65;;;2.38;;
56037;SDS011;41907;47.848;9.000;2023-03-14T01:08:44;2.28;;;1.05;;
56037;SDS011;41907;47.848;9.000;2023-03-14T01:11:10;3.17;;;1.63;;
56037;SDS011;41907;47.848;9.000;2023-03-14T01:13:38;5.18;;;1.83;;
56037;SDS011;41907;47.848;9.000;2023-03-14T01:16:04;6.72;;;2.10;;
56037;SDS011;41907;47.848;9.000;2023-03-14T01:18:31;2.63;;;1.02;;
56037;SDS011;41907;47.848;9.000;2023-03-14T01:20:58;9.93;;;2.03;;
56037;SDS011;41907;47.848;9.000;2023-03-14T01:23:23;0.93;;;0.65;;
56037;SDS011;41907;47.848;9.000;2023-03-14T01:25:48;0.73;;;0.60;;
56037;SDS011;41907;47.848;9.000;2023-03-14T01:28:14;1.65;;;0.57;;
56037;SDS011;41907;47.848;9.000;2023-03-14T01:30:39;1.20;;;0.40;;
56037;SDS011;41907;47.848;9.000;2023-03-14T01:33:05;2.55;;;1.40;;
56037;SDS011;41907;47.848;9.000;2023-03-14T01:35:30;1.65;;;1.02;;
56037;SDS011;41907;47.848;9.000;2023-03-14T01:37:55;0.55;;;0.40;;
56037;SDS011;41907;47.848;9.000;2023-03-14T01:40:20;1.08;;;0.20;;
56037;SDS011;41907;47.848;9.000;2023-03-14T01:42:47;0.63;;;0.40;;
56037;SDS011;41907;47.848;9.000;2023-03-14T01:48:23;0.30;;;0.20;;
56037;SDS011;41907;47.848;9.000;2023-03-14T01:50:49;1.52;;;1.40;;
56037;SDS011;41907;47.848;9.000;2023-03-14T01:53:14;0.52;;;0.20;;
56037;SDS011;41907;47.848;9.000;2023-03-14T01:55:40;2.95;;;1.23;;
56037;SDS011;41907;47.848;9.000;2023-03-14T01:58:05;2.72;;;1.13;;
56037;SDS011;41907;47.848;9.000;2023-03-14T02:00:31;2.35;;;1.95;;
56037;SDS011;41907;47.848;9.000;2023-03-14T02:02:58;2.55;;;2.20;;
56037;SDS011;41907;47.848;9.000;2023-03-14T02:05:32;0.93;;;0.63;;
56037;SDS011;41907;47.848;9.000;2023-03-14T02:08:02;7.55;;;6.85;;
56037;SDS011;41907;47.848;9.000;2023-03-14T02:10:31;3.05;;;1.77;;
56037;SDS011;41907;47.848;9.000;2023-03-14T02:13:01;1.15;;;1.02;;
56037;SDS011;41907;47.848;9.000;2023-03-14T02:15:28;1.58;;;1.38;;
56037;SDS011;41907;47.848;9.000;2023-03-14T02:17:54;7.03;;;5.80;;
56037;SDS011;41907;47.848;9.000;2023-03-14T02:23:15;3.05;;;2.38;;
56037;SDS011;41907;47.848;9.000;2023-03-14T02:25:56;2.08;;;0.75;;
56037;SDS011;41907;47.848;9.000;2023-03-14T02:28:27;0.68;;;0.40;;
56037;SDS011;41907;47.848;9.000;2023-03-14T02:30:52;0.77;;;0.30;;
56037;SDS011;41907;47.848;9.000;2023-03-14T02:33:18;0.52;;;0.20;;
56037;SDS011;41907;47.848;9.000;2023-03-14T02:35:59;0.22;;;0.20;;
56037;SDS011;41907;47.848;9.000;2023-03-14T02:38:45;0.32;;;0.13;;
56037;SDS011;41907;47.848;9.000;2023-03-14T02:41:15;1.98;;;0.80;;
56037;SDS011;41907;47.848;9.000;2023-03-14T02:43:41;7.13;;;2.45;;
56037;SDS011;41907;47.848;9.000;2023-03-14T02:46:07;5.60;;;2.03;;
56037;SDS011;41907;47.848;9.000;2023-03-14T02:48:41;4.50;;;1.67;;
56037;SDS011;41907;47.848;9.000;2023-03-14T02:51:10;5.55;;;1.85;;
56037;SDS011;41907;47.848;9.000;2023-03-14T02:53:36;2.97;;;1.15;;
56037;SDS011;41907;47.848;9.000;2023-03-14T02:56:03;5.68;;;1.30;;
56037;SDS011;41907;47.848;9.000;2023-03-14T02:58:29;2.08;;;1.35;;
56037;SDS011;41907;47.848;9.000;2023-03-14T03:00:55;2.60;;;1.42;;
56037;SDS011;41907;47.848;9.000;2023-03-14T03:03:21;3.20;;;1.60;;
56037;SDS011;41907;47.848;9.000;2023-03-14T03:05:48;4.28;;;0.70;;
56037;SDS011;41907;47.848;9.000;2023-03-14T03:08:17;4.03;;;2.30;;
56037;SDS011;41907;47.848;9.000;2023-03-14T03:10:43;2.88;;;1.65;;
56037;SDS011;41907;47.848;9.000;2023-03-14T03:13:09;2.20;;;1.10;;
56037;SDS011;41907;47.848;9.000;2023-03-14T03:15:34;3.05;;;1.23;;
56037;SDS011;41907;47.848;9.000;2023-03-14T03:17:59;1.13;;;0.63;;
56037;SDS011;41907;47.848;9.000;2023-03-14T03:20:25;1.20;;;0.50;;
56037;SDS011;41907;47.848;9.000;2023-03-14T03:22:50;1.30;;;0.60;;
56037;SDS011;41907;47.848;9.000;2023-03-14T03:25:16;10.85;;;4.70;;
56037;SDS011;41907;47.848;9.000;2023-03-14T03:27:41;9.05;;;4.20;;
56037;SDS011;41907;47.848;9.000;2023-03-14T03:30:07;5.45;;;1.85;;
56037;SDS011;41907;47.848;9.000;2023-03-14T03:32:33;3.47;;;1.45;;
56037;SDS011;41907;47.848;9.000;2023-03-14T03:34:58;1.42;;;0.93;;
56037;SDS011;41907;47.848;9.000;2023-03-14T03:37:24;7.40;;;3.17;;
56037;SDS011;41907;47.848;9.000;2023-03-14T03:39:50;7.40;;;2.60;;
56037;SDS011;41907;47.848;9.000;2023-03-14T03:42:16;4.10;;;2.00;;
56037;SDS011;41907;47.848;9.000;2023-03-14T03:44:41;4.05;;;1.27;;
56037;SDS011;41907;47.848;9.000;2023-03-14T03:47:06;2.50;;;1.70;;
56037;SDS011;41907;47.848;9.000;2023-03-14T03:49:32;2.45;;;1.20;;
56037;SDS011;41907;47.848;9.000;2023-03-14T03:51:57;3.78;;;1.73;;
56037;SDS011;41907;47.848;9.000;2023-03-14T03:54:23;4.18;;;1.85;;
56037;SDS011;41907;47.848;9.000;2023-03-14T03:56:49;3.75;;;1.42;;
56037;SDS011;41907;47.848;9.000;2023-03-14T03:59:14;2.83;;;1.40;;
56037;SDS011;41907;47.848;9.000;2023-03-14T04:01:39;1.52;;;1.00;;
56037;SDS011;41907;47.848;9.000;2023-03-14T04:04:05;5.85;;;1.20;;
56037;SDS011;41907;47.848;9.000;2023-03-14T04:06:31;2.28;;;1.10;;
56037;SDS011;41907;47.848;9.000;2023-03-14T04:08:56;2.50;;;1.17;;
56037;SDS011;41907;47.848;9.000;2023-03-14T04:11:21;2.83;;;1.20;;
56037;SDS011;41907;47.848;9.000;2023-03-14T04:13:47;2.78;;;1.17;;
56037;SDS011;41907;47.848;9.000;2023-03-14T04:16:16;1.55;;;0.60;;
56037;SDS011;41907;47.848;9.000;2023-03-14T04:18:43;4.95;;;1.75;;
56037;SDS011;41907;47.848;9.000;2023-03-14T04:21:08;3.50;;;1.90;;
56037;SDS011;41907;47.848;9.000;2023-03-14T04:23:34;1.75;;;0.90;;
56037;SDS011;41907;47.848;9.000;2023-03-14T04:25:59;4.60;;;2.00;;
56037;SDS011;41907;47.848;9.000;2023-03-14T04:28:25;7.70;;;2.90;;
56037;SDS011;41907;47.848;9.000;2023-03-14T04:30:50;7.03;;;2.05;;
56037;SDS011;41907;47.848;9.000;2023-03-14T04:33:16;20.05;;;7.25;;
56037;SDS011;41907;47.848;9.000;2023-03-14T04:35:45;14.23;;;7.82;;
56037;SDS011;41907;47.848;9.000;2023-03-14T04:38:11;13.25;;;4.95;;
56037;SDS011;41907;47.848;9.000;2023-03-14T04:40:37;7.70;;;3.20;;
56037;SDS011;41907;47.848;9.000;2023-03-14T04:43:03;12.85;;;5.25;;
56037;SDS011;41907;47.848;9.000;2023-03-14T04:45:28;13.88;;;5.97;;
56037;SDS011;41907;47.848;9.000;2023-03-14T04:47:54;16.23;;;7.43;;
56037;SDS011;41907;47.848;9.000;2023-03-14T04:50:19;14.95;;;5.22;;
56037;SDS011;41907;47.848;9.000;2023-03-14T04:52:44;13.73;;;4.60;;
56037;SDS011;41907;47.848;9.000;2023-03-14T04:55:10;9.10;;;2.67;;
56037;SDS011;41907;47.848;9.000;2023-03-14T04:57:35;9.57;;;2.67;;
56037;SDS011;41907;47.848;9.000;2023-03-14T05:00:01;5.57;;;2.78;;
56037;SDS011;41907;47.848;9.000;2023-03-14T05:02:31;4.72;;;2.30;;
56037;SDS011;41907;47.848;9.000;2023-03-14T05:04:56;8.13;;;3.65;;
56037;SDS011;41907;47.848;9.000;2023-03-14T05:07:21;6.20;;;3.45;;
56037;SDS011;41907;47.848;9.000;2023-03-14T05:09:47;0.10;;;0.10;;
56037;SDS011;41907;47.848;9.000;2023-03-14T05:12:12;1.02;;;0.50;;
56037;SDS011;41907;47.848;9.000;2023-03-14T05:14:37;4.88;;;1.40;;
56037;SDS011;41907;47.848;9.000;2023-03-14T05:17:04;1.23;;;0.40;;
56037;SDS011;41907;47.848;9.000;2023-03-14T05:19:29;3.35;;;1.50;;
56037;SDS011;41907;47.848;9.000;2023-03-14T05:21:55;3.88;;;1.20;;
56037;SDS011;41907;47.848;9.000;2023-03-14T05:24:20;5.28;;;2.47;;
56037;SDS011;41907;47.848;9.000;2023-03-14T05:26:45;5.40;;;1.77;;
56037;SDS011;41907;47.848;9.000;2023-03-14T05:29:11;2.10;;;0.90;;
56037;SDS011;41907;47.848;9.000;2023-03-14T05:31:36;1.45;;;0.70;;
56037;SDS011;41907;47.848;9.000;2023-03-14T05:34:01;3.05;;;1.15;;
56037;SDS011;41907;47.848;9.000;2023-03-14T05:36:27;3.60;;;2.00;;
56037;SDS011;41907;47.848;9.000;2023-03-14T05:38:52;5.75;;;2.97;;
56037;SDS011;41907;47.848;9.000;2023-03-14T05:41:17;8.48;;;3.03;;
56037;SDS011;41907;47.848;9.000;2023-03-14T05:43:43;11.57;;;3.20;;
56037;SDS011;41907;47.848;9.000;2023-03-14T05:46:08;5.97;;;2.63;;
56037;SDS011;41907;47.848;9.000;2023-03-14T05:48:33;6.57;;;2.25;;
56037;SDS011;41907;47.848;9.000;2023-03-14T05:50:59;6.57;;;2.15;;
56037;SDS011;41907;47.848;9.000;2023-03-14T05:53:24;6.05;;;1.92;;
56037;SDS011;41907;47.848;9.000;2023-03-14T05:55:53;7.32;;;2.88;;
56037;SDS011;41907;47.848;9.000;2023-03-14T05:58:19;5.70;;;5.20;;
56037;SDS011;41907;47.848;9.000;2023-03-14T06:00:45;6.28;;;4.68;;
56037;SDS011;41907;47.848;9.000;2023-03-14T06:03:10;8.88;;;2.03;;
56037;SDS011;41907;47.848;9.000;2023-03-14T06:05:35;8.95;;;1.80;;
56037;SDS011;41907;47.848;9.000;2023-03-14T06:08:01;7.65;;;1.80;;
56037;SDS011;41907;47.848;9.000;2023-03-14T06:10:26;4.88;;;1.95;;
56037;SDS011;41907;47.848;9.000;2023-03-14T06:12:51;3.08;;;1.25;;
56037;SDS011;41907;47.848;9.000;2023-03-14T06:15:17;6.70;;;1.77;;
56037;SDS011;41907;47.848;9.000;2023-03-14T06:17:42;3.55;;;0.98;;
56037;SDS011;41907;47.848;9.000;2023-03-14T06:20:08;7.47;;;1.60;;
56037;SDS011;41907;47.848;9.000;2023-03-14T06:22:34;4.13;;;1.33;;
56037;SDS011;41907;47.848;9.000;2023-03-14T06:24:59;4.82;;;1.40;;
56037;SDS011;41907;47.848;9.000;2023-03-14T06:27:24;5.47;;;2.00;;
56037;SDS011;41907;47.848;9.000;2023-03-14T06:29:50;4.28;;;1.45;;
56037;SDS011;41907;47.848;9.000;2023-03-14T06:32:15;7.90;;;2.65;;
56037;SDS011;41907;47.848;9.000;2023-03-14T06:34:41;9.05;;;2.35;;
56037;SDS011;41907;47.848;9.000;2023-03-14T06:37:06;7.20;;;3.00;;
56037;SDS011;41907;47.848;9.000;2023-03-14T06:39:31;6.30;;;2.90;;
56037;SDS011;41907;47.848;9.000;2023-03-14T06:41:57;3.00;;;1.63;;
56037;SDS011;41907;47.848;9.000;2023-03-14T06:44:22;4.63;;;1.80;;
56037;SDS011;41907;47.848;9.000;2023-03-14T06:46:47;2.42;;;1.25;;
56037;SDS011;41907;47.848;9.000;2023-03-14T06:49:13;5.07;;;1.35;;
56037;SDS011;41907;47.848;9.000;2023-03-14T06:51:38;4.70;;;2.03;;
56037;SDS011;41907;47.848;9.000;2023-03-14T06:54:03;8.13;;;3.88;;
56037;SDS011;41907;47.848;9.000;2023-03-14T06:56:29;4.95;;;1.98;;
56037;SDS011;41907;47.848;9.000;2023-03-14T06:58:54;1.25;;;0.50;;
56037;SDS011;41907;47.848;9.000;2023-03-14T07:01:23;1.63;;;0.60;;
56037;SDS011;41907;47.848;9.000;2023-03-14T07:03:51;1.83;;;0.60;;
56037;SDS011;41907;47.848;9.000;2023-03-14T07:06:16;2.13;;;0.65;;
56037;SDS011;41907;47.848;9.000;2023-03-14T07:08:42;1.58;;;0.73;;
56037;SDS011;41907;47.848;9.000;2023-03-14T07:11:07;3.47;;;1.65;;
56037;SDS011;41907;47.848;9.000;2023-03-14T07:13:35;7.05;;;3.67;;
56037;SDS011;41907;47.848;9.000;2023-03-14T07:16:00;8.10;;;3.28;;
56037;SDS011;41907;47.848;9.000;2023-03-14T07:18:25;9.15;;;3.38;;
56037;SDS011;41907;47.848;9.000;2023-03-14T07:20:51;6.60;;;2.60;;
56037;SDS011;41907;47.848;9.000;2023-03-14T07:23:16;5.18;;;3.40;;
56037;SDS011;41907;47.848;9.000;2023-03-14T07:25:41;3.17;;;1.65;;
56037;SDS011;41907;47.848;9.000;2023-03-14T07:28:07;3.08;;;1.85;;
56037;SDS011;41907;47.848;9.000;2023-03-14T07:30:32;4.28;;;1.92;;
56037;SDS011;41907;47.848;9.000;2023-03-14T07:32:57;6.60;;;3.10;;
56037;SDS011;41907;47.848;9.000;2023-03-14T07:35:22;4.15;;;1.90;;
56037;SDS011;41907;47.848;9.000;2023-03-14T07:37:48;4.40;;;2.60;;
56037;SDS011;41907;47.848;9.000;2023-03-14T07:40:13;4.25;;;1.25;;
56037;SDS011;41907;47.848;9.000;2023-03-14T07:42:42;6.43;;;2.03;;
56037;SDS011;41907;47.848;9.000;2023-03-14T07:45:08;2.45;;;1.23;;
56037;SDS011;41907;47.848;9.000;2023-03-14T07:47:34;1.30;;;0.70;;
56037;SDS011;41907;47.848;9.000;2023-03-14T07:50:00;0.90;;;0.50;;
56037;SDS011;41907;47.848;9.000;2023-03-14T07:52:25;1.95;;;0.82;;
56037;SDS011;41907;47.848;9.000;2023-03-14T07:54:50;1.17;;;0.50;;
56037;SDS011;41907;47.848;9.000;2023-03-14T07:57:16;1.48;;;0.30;;
56037;SDS011;41907;47.848;9.000;2023-03-14T07:59:41;1.77;;;0.70;;
56037;SDS011;41907;47.848;9.000;2023-03-14T08:02:08;2.75;;;1.25;;
56037;SDS011;41907;47.848;9.000;2023-03-14T08:04:36;4.18;;;1.17;;
56037;SDS011;41907;47.848;9.000;2023-03-14T08:07:02;1.98;;;1.42;;
56037;SDS011;41907;47.848;9.000;2023-03-14T08:09:28;3.25;;;1.27;;
56037;SDS011;41907;47.848;9.000;2023-03-14T08:11:53;2.88;;;1.35;;
56037;SDS011;41907;47.848;9.000;2023-03-14T08:14:18;4.10;;;1.42;;
56037;SDS011;41907;47.848;9.000;2023-03-14T08:16:44;2.70;;;0.90;;
56037;SDS011;41907;47.848;9.000;2023-03-14T08:19:09;4.25;;;2.85;;
56037;SDS011;41907;47.848;9.000;2023-03-14T08:21:34;4.07;;;2.00;;
56037;SDS011;41907;47.848;9.000;2023-03-14T08:24:00;1.63;;;1.23;;
56037;SDS011;41907;47.848;9.000;2023-03-14T08:26:25;1.35;;;0.85;;
56037;SDS011;41907;47.848;9.000;2023-03-14T08:28:51;2.95;;;0.68;;
56037;SDS011;41907;47.848;9.000;2023-03-14T08:31:16;0.98;;;0.45;;
56037;SDS011;41907;47.848;9.000;2023-03-14T08:33:42;4.15;;;1.30;;
56037;SDS011;41907;47.848;9.000;2023-03-14T08:36:07;3.15;;;1.20;;
56037;SDS011;41907;47.848;9.000;2023-03-14T08:38:33;3.03;;;1.00;;
56037;SDS011;41907;47.848;9.000;2023-03-14T08:40:59;5.88;;;1.83;;
56037;SDS011;41907;47.848;9.000;2023-03-14T08:43:25;2.25;;;0.90;;
56037;SDS011;41907;47.848;9.000;2023-03-14T08:45:51;1.80;;;0.70;;
56037;SDS011;41907;47.848;9.000;2023-03-14T08:48:16;2.88;;;1.60;;
56037;SDS011;41907;47.848;9.000;2023-03-14T08:50:42;5.97;;;3.13;;
56037;SDS011;41907;47.848;9.000;2023-03-14T08:53:07;4.40;;;1.95;;
56037;SDS011;41907;47.848;9.000;2023-03-14T08:55:33;7.13;;;3.83;;
56037;SDS011;41907;47.848;9.000;2023-03-14T08:57:58;9.95;;;4.53;;
56037;SDS011;41907;47.848;9.000;2023-03-14T09:00:24;6.25;;;3.47;;
56037;SDS011;41907;47.848;9.000;2023-03-14T09:02:49;3.53;;;1.48;;
56037;SDS011;41907;47.848;9.000;2023-03-14T09:05:15;3.88;;;0.85;;
56037;SDS011;41907;47.848;9.000;2023-03-14T09:07:41;11.73;;;5.72;;
56037;SDS011;41907;47.848;9.000;2023-03-14T09:10:06;3.28;;;1.05;;
56037;SDS011;41907;47.848;9.000;2023-03-14T09:12:33;2.65;;;0.50;;
56037;SDS011;41907;47.848;9.000;2023-03-14T09:14:58;2.58;;;0.50;;
56037;SDS011;41907;47.848;9.000;2023-03-14T09:17:24;1.05;;;0.47;;
56037;SDS011;41907;47.848;9.000;2023-03-14T09:19:49;4.40;;;1.05;;
56037;SDS011;41907;47.848;9.000;2023-03-14T09:22:15;0.10;;;0.10;;
56037;SDS011;41907;47.848;9.000;2023-03-14T09:24:40;2.08;;;1.05;;
56037;SDS011;41907;47.848;9.000;2023-03-14T09:27:06;6.78;;;2.40;;
56037;SDS011;41907;47.848;9.000;2023-03-14T09:29:32;1.67;;;0.80;;
56037;SDS011;41907;47.848;9.000;2023-03-14T09:31:58;8.00;;;0.60;;
56037;SDS011;41907;47.848;9.000;2023-03-14T09:34:23;3.97;;;0.32;;
56037;SDS011;41907;47.848;9.000;2023-03-14T09:36:49;0.10;;;0.10;;
56037;SDS011;41907;47.848;9.000;2023-03-14T09:39:14;0.35;;;0.10;;
56037;SDS011;41907;47.848;9.000;2023-03-14T09:41:43;4.13;;;0.40;;
56037;SDS011;41907;47.848;9.000;2023-03-14T09:44:15;3.30;;;0.50;;
56037;SDS011;41907;47.848;9.000;2023-03-14T09:46:45;0.30;;;0.22;;
56037;SDS011;41907;47.848;9.000;2023-03-14T09:49:23;1.58;;;0.40;;
56037;SDS011;41907;47.848;9.000;2023-03-14T09:51:53;2.22;;;0.20;;
56037;SDS011;41907;47.848;9.000;2023-03-14T09:54:35;1.48;;;0.80;;
56037;SDS011;41907;47.848;9.000;2023-03-14T09:57:04;1.60;;;0.93;;
56037;SDS011;41907;47.848;9.000;2023-03-14T09:59:31;0.32;;;0.30;;
56037;SDS011;41907;47.848;9.000;2023-03-14T10:02:00;1.15;;;0.65;;
56037;SDS011;41907;47.848;9.000;2023-03-14T10:04:26;0.95;;;0.80;;
56037;SDS011;41907;47.848;9.000;2023-03-14T10:06:54;3.72;;;1.15;;
56037;SDS011;41907;47.848;9.000;2023-03-14T10:09:21;9.43;;;3.20;;
56037;SDS011;41907;47.848;9.000;2023-03-14T10:11:51;2.10;;;1.55;;
56037;SDS011;41907;47.848;9.000;2023-03-14T10:14:28;3.10;;;1.40;;
56037;SDS011;41907;47.848;9.000;2023-03-14T10:16:55;1.83;;;1.20;;
56037;SDS011;41907;47.848;9.000;2023-03-14T10:19:31;1.05;;;0.55;;
56037;SDS011;41907;47.848;9.000;2023-03-14T10:21:56;1.40;;;1.17;;
56037;SDS011;41907;47.848;9.000;2023-03-14T10:27:50;1.45;;;0.52;;
56037;SDS011;41907;47.848;9.000;2023-03-14T10:29:55;1.25;;;0.47;;
56037;SDS011;41907;47.848;9.000;2023-03-14T10:32:31;1.40;;;0.73;;
56037;SDS011;41907;47.848;9.000;2023-03-14T10:37:53;3.33;;;0.73;;
56037;SDS011;41907;47.848;9.000;2023-03-14T10:42:55;2.35;;;0.90;;
56037;SDS011;41907;47.848;9.000;2023-03-14T10:48:17;1.05;;;0.70;;
56037;SDS011;41907;47.848;9.000;2023-03-14T10:53:19;1.93;;;0.67;;
56037;SDS011;41907;47.848;9.000;2023-03-14T10:55:45;1.23;;;0.80;;
56037;SDS011;41907;47.848;9.000;2023-03-14T10:58:20;3.17;;;1.88;;
56037;SDS011;41907;47.848;9.000;2023-03-14T11:00:54;3.15;;;2.47;;
56037;SDS011;41907;47.848;9.000;2023-03-14T11:03:27;4.72;;;1.63;;
56037;SDS011;41907;47.848;9.000;2023-03-14T11:05:57;6.25;;;4.32;;
56037;SDS011;41907;47.848;9.000;2023-03-14T11:13:39;5.25;;;1.80;;
56037;SDS011;41907;47.848;9.000;2023-03-14T11:16:26;2.97;;;1.40;;
56037;SDS011;41907;47.848;9.000;2023-03-14T11:29:39;1.85;;;0.65;;
56037;SDS011;41907;47.848;9.000;2023-03-14T11:32:13;5.50;;;1.52;;
56037;SDS011;41907;47.848;9.000;2023-03-14T11:34:48;5.93;;;1.65;;
56037;SDS011;41907;47.848;9.000;2023-03-14T11:37:22;4.45;;;2.13;;
56037;SDS011;41907;47.848;9.000;2023-03-14T11:42:30;1.92;;;1.00;;
56037;SDS011;41907;47.848;9.000;2023-03-14T11:44:57;2.90;;;1.40;;
56037;SDS011;41907;47.848;9.000;2023-03-14T11:47:26;0.93;;;0.70;;
56037;SDS011;41907;47.848;9.000;2023-03-14T11:52:54;4.25;;;1.45;;
56037;SDS011;41907;47.848;9.000;2023-03-14T11:55:23;6.22;;;3.47;;
56037;SDS011;41907;47.848;9.000;2023-03-14T11:57:56;12.55;;;7.10;;
56037;SDS011;41907;47.848;9.000;2023-03-14T12:00:26;9.93;;;3.72;;
56037;SDS011;41907;47.848;9.000;2023-03-14T12:03:01;4.05;;;3.35;;
56037;SDS011;41907;47.848;9.000;2023-03-14T12:11:18;2.53;;;1.90;;
56037;SDS011;41907;47.848;9.000;2023-03-14T12:13:49;3.80;;;1.52;;
56037;SDS011;41907;47.848;9.000;2023-03-14T12:18:50;0.90;;;0.50;;
56037;SDS011;41907;47.848;9.000;2023-03-14T12:21:17;1.67;;;0.40;;
56037;SDS011;41907;47.848;9.000;2023-03-14T12:28:38;0.10;;;0.10;;
56037;SDS011;41907;47.848;9.000;2023-03-14T12:34:02;2.53;;;0.80;;
56037;SDS011;41907;47.848;9.000;2023-03-14T12:44:51;1.95;;;0.73;;
56037;SDS011;41907;47.848;9.000;2023-03-14T12:49:42;2.53;;;0.98;;
56037;SDS011;41907;47.848;9.000;2023-03-14T12:52:13;1.35;;;0.57;;
56037;SDS011;41907;47.848;9.000;2023-03-14T12:57:28;2.88;;;0.60;;
56037;SDS011;41907;47.848;9.000;2023-03-14T12:59:57;2.47;;;0.32;;
56037;SDS011;41907;47.848;9.000;2023-03-14T13:05:00;0.35;;;0.10;;
56037;SDS011;41907;47.848;9.000;2023-03-14T13:07:33;0.43;;;0.17;;
56037;SDS011;41907;47.848;9.000;2023-03-14T13:12:39;0.00;;;0.00;;
56037;SDS011;41907;47.848;9.000;2023-03-14T13:15:14;0.00;;;0.00;;
56037;SDS011;41907;47.848;9.000;2023-03-14T13:17:48;1.00;;;0.03;;
56037;SDS011;41907;47.848;9.000;2023-03-14T13:20:24;0.82;;;0.73;;
56037;SDS011;41907;47.848;9.000;2023-03-14T13:22:54;0.20;;;0.08;;
56037;SDS011;41907;47.848;9.000;2023-03-14T13:25:19;0.10;;;0.10;;
56037;SDS011;41907;47.848;9.000;2023-03-14T13:27:47;0.08;;;0.08;;
56037;SDS011;41907;47.848;9.000;2023-03-14T13:32:42;0.45;;;0.30;;
56037;SDS011;41907;47.848;9.000;2023-03-14T13:35:19;2.22;;;1.10;;
56037;SDS011;41907;47.848;9.000;2023-03-14T13:37:47;2.30;;;1.70;;
56037;SDS011;41907;47.848;9.000;2023-03-14T13:40:24;0.10;;;0.10;;
56037;SDS011;41907;47.848;9.000;2023-03-14T13:43:01;1.45;;;0.20;;
56037;SDS011;41907;47.848;9.000;2023-03-14T13:45:29;1.33;;;0.35;;
56037;SDS011;41907;47.848;9.000;2023-03-14T13:47:54;1.85;;;0.22;;
56037;SDS011;41907;47.848;9.000;2023-03-14T13:50:20;0.50;;;0.30;;
56037;SDS011;41907;47.848;9.000;2023-03-14T13:52:45;1.25;;;0.15;;
56037;SDS011;41907;47.848;9.000;2023-03-14T13:55:15;0.28;;;0.10;;
56037;SDS011;41907;47.848;9.000;2023-03-14T13:57:43;2.42;;;0.20;;
56037;SDS011;41907;47.848;9.000;2023-03-14T14:00:23;0.43;;;0.25;;
56037;SDS011;41907;47.848;9.000;2023-03-14T14:02:52;0.22;;;0.17;;
56037;SDS011;41907;47.848;9.000;2023-03-14T14:07:53;0.98;;;0.10;;
56037;SDS011;41907;47.848;9.000;2023-03-14T14:10:19;0.45;;;0.10;;
56037;SDS011;41907;47.848;9.000;2023-03-14T14:12:50;1.65;;;0.25;;
56037;SDS011;41907;47.848;9.000;2023-03-14T14:15:25;0.20;;;0.10;;
56037;SDS011;41907;47.848;9.000;2023-03-14T14:17:54;2.67;;;0.75;;
56037;SDS011;41907;47.848;9.000;2023-03-14T14:20:42;5.30;;;2.75;;
56037;SDS011;41907;47.848;9.000;2023-03-14T14:23:10;2.72;;;1.38;;
56037;SDS011;41907;47.848;9.000;2023-03-14T14:25:37;1.20;;;0.35;;
56037;SDS011;41907;47.848;9.000;2023-03-14T14:31:04;7.97;;;3.00;;
56037;SDS011;41907;47.848;9.000;2023-03-14T14:33:42;4.28;;;0.95;;
56037;SDS011;41907;47.848;9.000;2023-03-14T14:36:13;0.30;;;0.30;;
56037;SDS011;41907;47.848;9.000;2023-03-14T14:41:13;2.03;;;0.30;;
56037;SDS011;41907;47.848;9.000;2023-03-14T14:43:39;1.50;;;0.30;;
56037;SDS011;41907;47.848;9.000;2023-03-14T14:46:06;1.77;;;0.32;;
56037;SDS011;41907;47.848;9.000;2023-03-14T14:48:35;1.00;;;0.35;;
56037;SDS011;41907;47.848;9.000;2023-03-14T14:51:03;1.65;;;0.25;;
56037;SDS011;41907;47.848;9.000;2023-03-14T14:53:35;0.20;;;0.17;;
56037;SDS011;41907;47.848;9.000;2023-03-14T14:56:16;1.27;;;0.40;;
56037;SDS011;41907;47.848;9.000;2023-03-14T14:58:47;0.65;;;0.52;;
56037;SDS011;41907;47.848;9.000;2023-03-14T15:03:43;2.38;;;1.05;;
56037;SDS011;41907;47.848;9.000;2023-03-14T15:06:10;4.10;;;1.92;;
56037;SDS011;41907;47.848;9.000;2023-03-14T15:08:38;1.77;;;0.60;;
56037;SDS011;41907;47.848;9.000;2023-03-14T15:11:03;1.52;;;0.35;;
56037;SDS011;41907;47.848;9.000;2023-03-14T15:13:29;1.75;;;0.45;;
56037;SDS011;41907;47.848;9.000;2023-03-14T15:15:55;0.60;;;0.38;;
56037;SDS011;41907;47.848;9.000;2023-03-14T15:18:24;0.70;;;0.30;;
56037;SDS011;41907;47.848;9.000;2023-03-14T15:20:51;2.45;;;0.20;;
56037;SDS011;41907;47.848;9.000;2023-03-14T15:23:18;1.92;;;0.60;;
56037;SDS011;41907;47.848;9.000;2023-03-14T15:25:44;0.98;;;0.55;;
56037;SDS011;41907;47.848;9.000;2023-03-14T15:30:45;2.90;;;0.30;;
56037;SDS011;41907;47.848;9.000;2023-03-14T15:33:12;8.73;;;3.67;;
56037;SDS011;41907;47.848;9.000;2023-03-14T15:35:37;10.07;;;4.18;;
56037;SDS011;41907;47.848;9.000;2023-03-14T15:38:03;7.65;;;4.25;;
56037;SDS011;41907;47.848;9.000;2023-03-14T15:40:29;1.30;;;0.70;;
56037;SDS011;41907;47.848;9.000;2023-03-14T15:42:54;1.73;;;0.70;;
56037;SDS011;41907;47.848;9.000;2023-03-14T15:45:19;3.10;;;0.30;;
56037;SDS011;41907;47.848;9.000;2023-03-14T15:47:45;1.08;;;0.55;;
56037;SDS011;41907;47.848;9.000;2023-03-14T15:50:10;1.35;;;0.52;;
56037;SDS011;41907;47.848;9.000;2023-03-14T15:52:36;1.90;;;0.50;;
56037;SDS011;41907;47.848;9.000;2023-03-14T15:55:01;2.13;;;0.57;;
56037;SDS011;41907;47.848;9.000;2023-03-14T15:57:27;1.58;;;0.50;;
56037;SDS011;41907;47.848;9.000;2023-03-14T15:59:53;1.83;;;0.30;;
56037;SDS011;41907;47.848;9.000;2023-03-14T16:02:18;0.93;;;0.30;;
56037;SDS011;41907;47.848;9.000;2023-03-14T16:04:44;1.13;;;0.60;;
56037;SDS011;41907;47.848;9.000;2023-03-14T16:07:09;3.03;;;0.70;;
56037;SDS011;41907;47.848;9.000;2023-03-14T16:09:35;7.45;;;2.08;;
56037;SDS011;41907;47.848;9.000;2023-03-14T16:12:00;11.57;;;6.10;;
56037;SDS011;41907;47.848;9.000;2023-03-14T16:14:25;2.78;;;1.48;;
56037;SDS011;41907;47.848;9.000;2023-03-14T16:16:52;1.08;;;0.60;;
56037;SDS011;41907;47.848;9.000;2023-03-14T16:19:18;3.85;;;1.00;;
56037;SDS011;41907;47.848;9.000;2023-03-14T16:21:43;3.28;;;1.67;;